Flight Track Log - Related Links

Times and Time Zones

All times are in EDT time to prevent confusion due to time zone crossing. See the AAL1884 flight status page for this flight to view local times or setup timezone preferences in your user account.

Time Position Orientation Groundspeed Altitude Reporting Facility
EDT Latitude Longitude Course Direction KTS MPH feet Rate Location/Type
Tue 02:17:15 PM 36.2596 -94.3000 190° South  Level FlightAware Approximate
Tue 02:18:15 PM 36.1665 -94.3000 200° South  Level FlightAware Approximate
Tue 02:19:15 PM 36.0774 -94.2983 265° West  Level FlightAware Approximate
Tue 02:20:31 PM 36.0742 -94.3425 195° South 280 322 10,700  Level Memphis Center
Tue 02:21:31 PM 35.9772 -94.3736 195° South 309 356 12,800 2,700 Climbing Memphis Center
Tue 02:22:31 PM 35.8678 -94.4094 194° South 362 417 16,100 3,200 Climbing Memphis Center
Tue 02:23:31 PM 35.7558 -94.4447 195° South 402 463 19,200 2,800 Climbing Memphis Center
Tue 02:24:31 PM 35.6358 -94.4850 195° South 425 489 21,700 2,450 Climbing Memphis Center
Tue 02:25:31 PM 35.5114 -94.5247 194° South 443 510 24,100 2,150 Climbing Memphis Center
Tue 02:26:31 PM 35.3850 -94.5642 193° South 465 535 26,000 950 Climbing Memphis Center
Tue 02:27:31 PM 35.2586 -94.6011 196° South 465 535 26,000  Level Memphis Center
Tue 02:28:47 PM 35.0922 -94.6581 204° Southwest 504 580 26,000  Level Fort Worth Center
Tue 02:29:47 PM 34.9750 -94.7225 222° Southwest 483 556 26,000  Level Fort Worth Center
Tue 02:30:47 PM 34.8811 -94.8267 221° Southwest 464 534 26,000  Level Fort Worth Center
Tue 02:31:47 PM 34.7953 -94.9178 222° Southwest 464 534 26,000  Level Fort Worth Center
Tue 02:32:47 PM 34.6994 -95.0217 221° Southwest 464 534 26,000  Level Fort Worth Center
Tue 02:33:47 PM 34.6053 -95.1203 221° Southwest 459 528 26,000  Level Fort Worth Center
Tue 02:34:47 PM 34.5089 -95.2236 221° Southwest 459 528 26,000  Level Fort Worth Center
Tue 02:35:47 PM 34.4128 -95.3242 221° Southwest 459 528 26,000  Level Fort Worth Center
Tue 02:36:47 PM 34.3161 -95.4244 222° Southwest 459 528 26,000 -150 Level Fort Worth Center
Tue 02:37:47 PM 34.2219 -95.5272 220° Southwest 454 522 25,700 -650 Descending Fort Worth Center
Tue 02:38:47 PM 34.1211 -95.6297 224° Southwest 460 529 24,700 -1,350 Descending Fort Worth Center
Tue 02:39:47 PM 34.0369 -95.7267 220° Southwest 441 507 23,000 -1,850 Descending Fort Worth Center
Tue 02:40:47 PM 33.9442 -95.8211 222° Southwest 440 506 21,000 -2,050 Descending Fort Worth Center
Tue 02:41:47 PM 33.8578 -95.9153 218° Southwest 430 495 18,900 -2,050 Descending Fort Worth Center
Tue 02:42:47 PM 33.7647 -96.0042 220° Southwest 430 495 16,900 -2,050 Descending Fort Worth Center
Tue 02:43:47 PM 33.6719 -96.0981 220° Southwest 416 479 14,800 -2,000 Descending Fort Worth Center
Tue 02:44:47 PM 33.5975 -96.1742 229° Southwest 405 466 12,900 -1,742 Descending Fort Worth Center
Tue 02:45:20 PM 33.5578 -96.2286 223° Southwest 381 438 12,100 -1,233 Descending FAA TRACON SMA TRACON (SMA)
Tue 02:46:00 PM 33.5044 -96.2881 223° Southwest 378 435 11,400 -900 Descending FAA TRACON SMA TRACON (SMA)
Tue 02:46:40 PM 33.4536 -96.3453 224° Southwest 357 411 10,900 -375 Descending FAA TRACON SMA TRACON (SMA)
Tue 02:47:20 PM 33.4100 -96.3958 225° Southwest 309 356 10,900 -444 Level FAA TRACON SMA TRACON (SMA)
Tue 02:48:01 PM 33.3739 -96.4394 224° Southwest 302 348 10,300 -1,125 Descending FAA TRACON SMA TRACON (SMA)
Tue 02:48:40 PM 33.3322 -96.4878 224° Southwest 299 344 9,400 -1,320 Descending FAA TRACON SMA TRACON (SMA)
Tue 02:49:41 PM 33.2742 -96.5539 242° Southwest 285 328 8,100 -1,282 Descending FAA TRACON SMA TRACON (SMA)
Tue 02:50:23 PM 33.2497 -96.6094 246° West 272 313 7,200 -1,407 Descending FAA TRACON SMA TRACON (SMA)
Tue 02:51:02 PM 33.2314 -96.6592 243° Southwest 266 306 6,200 -1,500 Descending FAA TRACON SMA TRACON (SMA)
Tue 02:51:43 PM 33.2086 -96.7119 236° Southwest 262 302 5,200 -923 Descending FAA TRACON SMA TRACON (SMA)
Tue 02:52:20 PM 33.1842 -96.7558 236° Southwest 258 297 5,000 -154 Descending FAA TRACON SMA TRACON (SMA)
Tue 02:53:01 PM 33.1564 -96.8050 237° Southwest 259 298 5,000 -74 Level FAA TRACON SMA TRACON (SMA)
Tue 02:53:41 PM 33.1303 -96.8525 239° Southwest 246 283 4,900 -304 Descending FAA TRACON SMA TRACON (SMA)
Tue 02:54:20 PM 33.1086 -96.8958 239° Southwest 217 250 4,600 -759 Descending FAA TRACON SMA TRACON (SMA)
Tue 02:55:00 PM 33.0900 -96.9331 238° Southwest 212 244 3,900 -1,200 Descending FAA TRACON SMA TRACON (SMA)
Tue 02:55:40 PM 33.0694 -96.9728 238° Southwest 206 237 3,000 -1,350 Descending FAA TRACON SMA TRACON (SMA)

Login

Don't have an account? Register now (free) for customized features, flight alerts, and more!